sensor_id;sensor_type;location;lat;lon;timestamp;pressure;altitude;pressure_sealevel;temperature;humidity
5755;BME280;2902;42.130;24.732;2023-03-13T00:00:23;99848.28;;;6.28;56.89
5755;BME280;2902;42.130;24.732;2023-03-13T00:02:51;99854.38;;;6.28;57.76
5755;BME280;2902;42.130;24.732;2023-03-13T00:05:18;99847.13;;;6.30;57.34
5755;BME280;2902;42.130;24.732;2023-03-13T00:07:45;99853.91;;;6.33;57.81
5755;BME280;2902;42.130;24.732;2023-03-13T00:10:11;99854.09;;;6.39;57.68
5755;BME280;2902;42.130;24.732;2023-03-13T00:12:38;99851.41;;;6.23;57.27
5755;BME280;2902;42.130;24.732;2023-03-13T00:15:05;99851.81;;;6.11;58.05
5755;BME280;2902;42.130;24.732;2023-03-13T00:17:32;99862.53;;;6.01;57.93
5755;BME280;2902;42.130;24.732;2023-03-13T00:20:00;99850.81;;;6.04;58.27
5755;BME280;2902;42.130;24.732;2023-03-13T00:22:27;99860.72;;;6.10;58.31
5755;BME280;2902;42.130;24.732;2023-03-13T00:24:54;99855.97;;;6.13;58.21
5755;BME280;2902;42.130;24.732;2023-03-13T00:27:20;99858.13;;;6.18;58.22
5755;BME280;2902;42.130;24.732;2023-03-13T00:29:47;99855.19;;;6.21;57.96
5755;BME280;2902;42.130;24.732;2023-03-13T00:32:15;99851.69;;;6.20;58.78
5755;BME280;2902;42.130;24.732;2023-03-13T00:34:41;99853.69;;;6.18;57.88
5755;BME280;2902;42.130;24.732;2023-03-13T00:37:09;99846.78;;;6.17;57.49
5755;BME280;2902;42.130;24.732;2023-03-13T00:39:36;99846.59;;;6.19;57.60
5755;BME280;2902;42.130;24.732;2023-03-13T00:42:03;99846.28;;;6.22;57.48
5755;BME280;2902;42.130;24.732;2023-03-13T00:44:30;99841.34;;;6.27;57.60
5755;BME280;2902;42.130;24.732;2023-03-13T00:46:57;99840.38;;;6.28;57.36
5755;BME280;2902;42.130;24.732;2023-03-13T00:49:24;99845.47;;;6.29;57.64
5755;BME280;2902;42.130;24.732;2023-03-13T00:51:50;99840.72;;;6.33;57.24
5755;BME280;2902;42.130;24.732;2023-03-13T00:54:18;99842.69;;;6.39;57.14
5755;BME280;2902;42.130;24.732;2023-03-13T00:56:45;99837.75;;;6.44;56.25
5755;BME280;2902;42.130;24.732;2023-03-13T00:59:13;99835.78;;;6.46;56.20
5755;BME280;2902;42.130;24.732;2023-03-13T01:01:40;99846.84;;;6.49;56.14
5755;BME280;2902;42.130;24.732;2023-03-13T01:04:08;99844.03;;;6.51;56.24
5755;BME280;2902;42.130;24.732;2023-03-13T01:06:37;99841.56;;;6.49;56.63
5755;BME280;2902;42.130;24.732;2023-03-13T01:09:05;99841.56;;;6.49;56.86
5755;BME280;2902;42.130;24.732;2023-03-13T01:11:36;99839.91;;;6.48;56.93
5755;BME280;2902;42.130;24.732;2023-03-13T01:14:05;99840.06;;;6.47;56.73
5755;BME280;2902;42.130;24.732;2023-03-13T01:16:33;99841.06;;;6.46;56.58
5755;BME280;2902;42.130;24.732;2023-03-13T01:19:02;99841.72;;;6.40;56.86
5755;BME280;2902;42.130;24.732;2023-03-13T01:21:29;99838.06;;;6.33;55.60
5755;BME280;2902;42.130;24.732;2023-03-13T01:23:56;99837.56;;;6.29;55.01
5755;BME280;2902;42.130;24.732;2023-03-13T01:26:24;99854.38;;;6.28;55.04
5755;BME280;2902;42.130;24.732;2023-03-13T01:28:53;99856.66;;;6.23;54.44
5755;BME280;2902;42.130;24.732;2023-03-13T01:31:21;99856.44;;;6.09;54.59
5755;BME280;2902;42.130;24.732;2023-03-13T01:33:49;99855.59;;;6.08;55.50
5755;BME280;2902;42.130;24.732;2023-03-13T01:36:17;99850.50;;;6.07;55.17
5755;BME280;2902;42.130;24.732;2023-03-13T01:38:47;99863.84;;;6.05;55.45
5755;BME280;2902;42.130;24.732;2023-03-13T01:41:14;99860.84;;;6.00;55.83
5755;BME280;2902;42.130;24.732;2023-03-13T01:43:42;99858.25;;;6.08;55.64
5755;BME280;2902;42.130;24.732;2023-03-13T01:46:15;99868.63;;;6.10;55.65
5755;BME280;2902;42.130;24.732;2023-03-13T01:48:47;99872.56;;;6.06;55.63
5755;BME280;2902;42.130;24.732;2023-03-13T01:51:19;99873.06;;;6.01;56.01
5755;BME280;2902;42.130;24.732;2023-03-13T01:53:49;99874.53;;;5.96;55.91
5755;BME280;2902;42.130;24.732;2023-03-13T01:56:20;99867.59;;;5.95;55.77
5755;BME280;2902;42.130;24.732;2023-03-13T01:58:49;99864.16;;;5.76;55.80
5755;BME280;2902;42.130;24.732;2023-03-13T02:01:19;99870.31;;;5.59;56.34
5755;BME280;2902;42.130;24.732;2023-03-13T02:03:47;99875.44;;;5.61;57.27
5755;BME280;2902;42.130;24.732;2023-03-13T02:06:16;99875.09;;;5.56;56.66
5755;BME280;2902;42.130;24.732;2023-03-13T02:08:46;99884.44;;;5.50;56.58
5755;BME280;2902;42.130;24.732;2023-03-13T02:11:21;99890.28;;;5.44;57.06
5755;BME280;2902;42.130;24.732;2023-03-13T02:13:50;99886.72;;;5.45;57.40
5755;BME280;2902;42.130;24.732;2023-03-13T02:16:19;99897.00;;;5.39;58.07
5755;BME280;2902;42.130;24.732;2023-03-13T02:18:47;99903.41;;;5.36;57.92
5755;BME280;2902;42.130;24.732;2023-03-13T02:21:22;99907.59;;;5.47;57.79
5755;BME280;2902;42.130;24.732;2023-03-13T02:23:55;99915.75;;;5.53;57.93
5755;BME280;2902;42.130;24.732;2023-03-13T02:26:25;99904.28;;;5.62;57.78
5755;BME280;2902;42.130;24.732;2023-03-13T02:28:52;99908.91;;;5.68;57.17
5755;BME280;2902;42.130;24.732;2023-03-13T02:31:19;99916.81;;;5.68;57.14
5755;BME280;2902;42.130;24.732;2023-03-13T02:33:46;99920.16;;;5.70;56.97
5755;BME280;2902;42.130;24.732;2023-03-13T02:36:13;99927.72;;;5.73;56.67
5755;BME280;2902;42.130;24.732;2023-03-13T02:38:44;99929.00;;;5.69;56.58
5755;BME280;2902;42.130;24.732;2023-03-13T02:41:12;99927.06;;;5.71;56.66
5755;BME280;2902;42.130;24.732;2023-03-13T02:43:41;99928.13;;;5.61;56.56
5755;BME280;2902;42.130;24.732;2023-03-13T02:46:10;99938.75;;;5.69;56.91
5755;BME280;2902;42.130;24.732;2023-03-13T02:48:38;99941.72;;;5.74;56.88
5755;BME280;2902;42.130;24.732;2023-03-13T02:51:13;99952.13;;;5.75;56.70
5755;BME280;2902;42.130;24.732;2023-03-13T02:53:42;99951.06;;;5.68;56.56
5755;BME280;2902;42.130;24.732;2023-03-13T02:56:11;99946.94;;;5.66;57.29
5755;BME280;2902;42.130;24.732;2023-03-13T02:58:39;99951.31;;;5.57;57.97
5755;BME280;2902;42.130;24.732;2023-03-13T03:01:07;99955.78;;;5.39;58.21
5755;BME280;2902;42.130;24.732;2023-03-13T03:03:34;99943.84;;;5.27;58.60
5755;BME280;2902;42.130;24.732;2023-03-13T03:06:02;99952.66;;;5.18;59.19
5755;BME280;2902;42.130;24.732;2023-03-13T03:08:29;99951.34;;;5.05;59.37
5755;BME280;2902;42.130;24.732;2023-03-13T03:10:56;99961.66;;;4.98;59.92
5755;BME280;2902;42.130;24.732;2023-03-13T03:13:23;99965.09;;;4.81;60.35
5755;BME280;2902;42.130;24.732;2023-03-13T03:15:50;99972.38;;;4.70;60.29
5755;BME280;2902;42.130;24.732;2023-03-13T03:18:18;99973.66;;;4.66;60.54
5755;BME280;2902;42.130;24.732;2023-03-13T03:20:44;99969.31;;;4.47;60.78
5755;BME280;2902;42.130;24.732;2023-03-13T03:23:11;99982.47;;;4.47;61.52
5755;BME280;2902;42.130;24.732;2023-03-13T03:25:38;99978.84;;;4.48;61.30
5755;BME280;2902;42.130;24.732;2023-03-13T03:28:04;99998.81;;;4.41;62.55
5755;BME280;2902;42.130;24.732;2023-03-13T03:30:31;100001.72;;;4.38;62.29
5755;BME280;2902;42.130;24.732;2023-03-13T03:32:58;100008.41;;;4.33;61.92
5755;BME280;2902;42.130;24.732;2023-03-13T03:35:26;100015.47;;;4.32;61.88
5755;BME280;2902;42.130;24.732;2023-03-13T03:37:53;100015.75;;;4.29;62.00
5755;BME280;2902;42.130;24.732;2023-03-13T03:40:19;100025.28;;;4.30;61.89
5755;BME280;2902;42.130;24.732;2023-03-13T03:42:46;100034.69;;;4.33;61.75
5755;BME280;2902;42.130;24.732;2023-03-13T03:45:13;100030.97;;;4.35;61.41
5755;BME280;2902;42.130;24.732;2023-03-13T03:47:39;100031.91;;;4.34;61.48
5755;BME280;2902;42.130;24.732;2023-03-13T03:50:07;100038.16;;;4.33;60.85
5755;BME280;2902;42.130;24.732;2023-03-13T03:52:37;100031.50;;;4.29;61.94
5755;BME280;2902;42.130;24.732;2023-03-13T03:55:04;100033.72;;;4.34;62.33
5755;BME280;2902;42.130;24.732;2023-03-13T03:57:31;100040.66;;;4.25;62.47
5755;BME280;2902;42.130;24.732;2023-03-13T03:59:58;100042.09;;;4.10;62.24
5755;BME280;2902;42.130;24.732;2023-03-13T04:02:24;100049.28;;;3.99;63.55
5755;BME280;2902;42.130;24.732;2023-03-13T04:04:51;100048.47;;;3.98;63.30
5755;BME280;2902;42.130;24.732;2023-03-13T04:07:18;100043.50;;;3.95;63.40
5755;BME280;2902;42.130;24.732;2023-03-13T04:09:46;100059.25;;;4.05;62.62
5755;BME280;2902;42.130;24.732;2023-03-13T04:12:12;100059.53;;;4.02;63.03
5755;BME280;2902;42.130;24.732;2023-03-13T04:14:39;100059.53;;;4.02;62.98
5755;BME280;2902;42.130;24.732;2023-03-13T04:17:06;100062.03;;;4.03;62.86
5755;BME280;2902;42.130;24.732;2023-03-13T04:19:32;100066.69;;;4.09;63.33
5755;BME280;2902;42.130;24.732;2023-03-13T04:21:59;100070.03;;;4.11;63.38
5755;BME280;2902;42.130;24.732;2023-03-13T04:24:26;100068.06;;;4.13;63.37
5755;BME280;2902;42.130;24.732;2023-03-13T04:26:54;100068.91;;;4.14;63.31
5755;BME280;2902;42.130;24.732;2023-03-13T04:29:21;100079.84;;;4.09;63.36
5755;BME280;2902;42.130;24.732;2023-03-13T04:31:47;100073.91;;;4.07;63.13
5755;BME280;2902;42.130;24.732;2023-03-13T04:34:14;100081.94;;;4.15;63.28
5755;BME280;2902;42.130;24.732;2023-03-13T04:36:41;100090.50;;;4.08;63.13
5755;BME280;2902;42.130;24.732;2023-03-13T04:39:07;100100.34;;;4.06;63.11
5755;BME280;2902;42.130;24.732;2023-03-13T04:41:34;100101.00;;;4.08;63.11
5755;BME280;2902;42.130;24.732;2023-03-13T04:44:02;100104.34;;;4.10;64.00
5755;BME280;2902;42.130;24.732;2023-03-13T04:46:29;100106.56;;;4.14;63.51
5755;BME280;2902;42.130;24.732;2023-03-13T04:48:55;100112.91;;;4.21;63.40
5755;BME280;2902;42.130;24.732;2023-03-13T04:51:23;100114.84;;;4.19;63.75
5755;BME280;2902;42.130;24.732;2023-03-13T04:53:50;100110.41;;;4.20;63.19
5755;BME280;2902;42.130;24.732;2023-03-13T04:56:21;100118.41;;;4.28;62.97
5755;BME280;2902;42.130;24.732;2023-03-13T04:58:48;100112.34;;;4.27;62.77
5755;BME280;2902;42.130;24.732;2023-03-13T05:01:16;100129.25;;;4.25;62.84
5755;BME280;2902;42.130;24.732;2023-03-13T05:03:43;100117.03;;;4.33;63.08
5755;BME280;2902;42.130;24.732;2023-03-13T05:06:10;100123.34;;;4.59;62.26
5755;BME280;2902;42.130;24.732;2023-03-13T05:08:37;100127.63;;;4.97;61.49
5755;BME280;2902;42.130;24.732;2023-03-13T05:11:04;100132.47;;;5.28;60.44
5755;BME280;2902;42.130;24.732;2023-03-13T05:13:31;100129.28;;;5.52;58.43
5755;BME280;2902;42.130;24.732;2023-03-13T05:15:57;100122.97;;;5.80;57.87
5755;BME280;2902;42.130;24.732;2023-03-13T05:18:25;100141.44;;;6.33;55.85
5755;BME280;2902;42.130;24.732;2023-03-13T05:20:52;100152.94;;;6.75;55.03
5755;BME280;2902;42.130;24.732;2023-03-13T05:23:19;100157.16;;;7.19;52.40
5755;BME280;2902;42.130;24.732;2023-03-13T05:25:46;100162.06;;;7.47;51.65
5755;BME280;2902;42.130;24.732;2023-03-13T05:28:12;100163.66;;;7.82;50.73
5755;BME280;2902;42.130;24.732;2023-03-13T05:30:39;100173.59;;;8.12;49.40
5755;BME280;2902;42.130;24.732;2023-03-13T05:33:06;100168.69;;;8.57;47.94
5755;BME280;2902;42.130;24.732;2023-03-13T05:35:34;100166.19;;;8.79;46.73
5755;BME280;2902;42.130;24.732;2023-03-13T05:38:01;100159.41;;;9.31;55.01
5755;BME280;2902;42.130;24.732;2023-03-13T05:40:28;100179.69;;;9.55;45.71
5755;BME280;2902;42.130;24.732;2023-03-13T05:42:55;100185.34;;;9.60;44.86
5755;BME280;2902;42.130;24.732;2023-03-13T05:45:22;100189.63;;;9.61;44.99
5755;BME280;2902;42.130;24.732;2023-03-13T05:47:50;100192.72;;;9.34;44.75
5755;BME280;2902;42.130;24.732;2023-03-13T05:50:17;100191.63;;;9.12;45.04
5755;BME280;2902;42.130;24.732;2023-03-13T05:52:45;100187.88;;;8.75;45.05
5755;BME280;2902;42.130;24.732;2023-03-13T05:55:11;100199.97;;;8.69;45.52
5755;BME280;2902;42.130;24.732;2023-03-13T05:57:38;100200.47;;;8.73;48.28
5755;BME280;2902;42.130;24.732;2023-03-13T06:00:06;100202.63;;;8.77;46.55
5755;BME280;2902;42.130;24.732;2023-03-13T06:02:33;100205.25;;;8.77;47.40
5755;BME280;2902;42.130;24.732;2023-03-13T06:04:59;100200.03;;;9.24;49.98
5755;BME280;2902;42.130;24.732;2023-03-13T06:07:26;100206.47;;;9.76;45.25
5755;BME280;2902;42.130;24.732;2023-03-13T06:09:54;100206.63;;;10.13;44.07
5755;BME280;2902;42.130;24.732;2023-03-13T06:12:21;100209.03;;;10.45;43.41
5755;BME280;2902;42.130;24.732;2023-03-13T06:14:47;100200.28;;;10.96;42.73
5755;BME280;2902;42.130;24.732;2023-03-13T06:17:14;100211.59;;;11.27;41.72
5755;BME280;2902;42.130;24.732;2023-03-13T06:19:41;100211.13;;;11.53;40.21
5755;BME280;2902;42.130;24.732;2023-03-13T06:22:08;100214.53;;;11.90;40.10
5755;BME280;2902;42.130;24.732;2023-03-13T06:24:35;100225.38;;;11.74;38.86
5755;BME280;2902;42.130;24.732;2023-03-13T06:27:03;100218.22;;;11.60;41.54
5755;BME280;2902;42.130;24.732;2023-03-13T06:29:30;100217.47;;;11.37;38.62
5755;BME280;2902;42.130;24.732;2023-03-13T06:31:56;100223.41;;;11.54;38.91
5755;BME280;2902;42.130;24.732;2023-03-13T06:34:23;100216.53;;;11.59;48.40
5755;BME280;2902;42.130;24.732;2023-03-13T06:36:50;100223.59;;;12.52;41.17
5755;BME280;2902;42.130;24.732;2023-03-13T06:39:16;100223.13;;;12.28;37.93
5755;BME280;2902;42.130;24.732;2023-03-13T06:41:44;100215.06;;;11.57;39.70
5755;BME280;2902;42.130;24.732;2023-03-13T06:44:12;100217.22;;;12.11;37.86
5755;BME280;2902;42.130;24.732;2023-03-13T06:46:38;100224.19;;;12.12;38.05
5755;BME280;2902;42.130;24.732;2023-03-13T06:49:05;100221.84;;;11.88;38.80
5755;BME280;2902;42.130;24.732;2023-03-13T06:51:32;100214.63;;;11.53;42.98
5755;BME280;2902;42.130;24.732;2023-03-13T06:54:00;100214.53;;;11.90;43.72
5755;BME280;2902;42.130;24.732;2023-03-13T06:56:33;100225.25;;;11.97;39.00
5755;BME280;2902;42.130;24.732;2023-03-13T06:59:02;100214.16;;;11.93;42.02
5755;BME280;2902;42.130;24.732;2023-03-13T07:01:30;100214.19;;;12.35;40.42
5755;BME280;2902;42.130;24.732;2023-03-13T07:03:57;100223.59;;;12.31;38.91
5755;BME280;2902;42.130;24.732;2023-03-13T07:06:24;100197.78;;;11.96;38.40
5755;BME280;2902;42.130;24.732;2023-03-13T07:08:51;100214.66;;;12.03;38.85
5755;BME280;2902;42.130;24.732;2023-03-13T07:11:18;100198.28;;;12.90;40.74
5755;BME280;2902;42.130;24.732;2023-03-13T07:13:45;100207.13;;;13.52;37.43
5755;BME280;2902;42.130;24.732;2023-03-13T07:16:12;100209.53;;;14.28;36.73
5755;BME280;2902;42.130;24.732;2023-03-13T07:18:40;100208.94;;;14.52;34.48
5755;BME280;2902;42.130;24.732;2023-03-13T07:21:09;100207.31;;;14.64;33.91
5755;BME280;2902;42.130;24.732;2023-03-13T07:23:36;100216.34;;;15.22;33.24
5755;BME280;2902;42.130;24.732;2023-03-13T07:26:05;100212.88;;;14.95;32.37
5755;BME280;2902;42.130;24.732;2023-03-13T07:28:32;100225.22;;;15.03;31.91
5755;BME280;2902;42.130;24.732;2023-03-13T07:31:03;100217.41;;;15.01;32.60
5755;BME280;2902;42.130;24.732;2023-03-13T07:33:30;100211.41;;;15.25;31.92
5755;BME280;2902;42.130;24.732;2023-03-13T07:35:58;100227.88;;;14.83;32.17
5755;BME280;2902;42.130;24.732;2023-03-13T07:38:25;100222.13;;;14.99;31.98
5755;BME280;2902;42.130;24.732;2023-03-13T07:40:53;100210.59;;;14.86;31.70
5755;BME280;2902;42.130;24.732;2023-03-13T07:43:20;100216.34;;;14.63;32.19
5755;BME280;2902;42.130;24.732;2023-03-13T07:45:52;100210.19;;;14.43;32.27
5755;BME280;2902;42.130;24.732;2023-03-13T07:48:19;100205.75;;;14.16;33.36
5755;BME280;2902;42.130;24.732;2023-03-13T07:50:46;100211.19;;;14.42;33.75
5755;BME280;2902;42.130;24.732;2023-03-13T07:53:14;100217.63;;;14.80;32.09
5755;BME280;2902;42.130;24.732;2023-03-13T07:55:51;100208.31;;;14.63;32.21
5755;BME280;2902;42.130;24.732;2023-03-13T07:58:18;100208.75;;;14.73;32.04
5755;BME280;2902;42.130;24.732;2023-03-13T08:00:45;100211.84;;;15.16;31.51
5755;BME280;2902;42.130;24.732;2023-03-13T08:03:12;100210.13;;;15.54;30.75
5755;BME280;2902;42.130;24.732;2023-03-13T08:05:39;100207.69;;;15.26;31.01
5755;BME280;2902;42.130;24.732;2023-03-13T08:08:07;100205.63;;;15.48;30.98
5755;BME280;2902;42.130;24.732;2023-03-13T08:10:35;100186.63;;;15.62;30.60
5755;BME280;2902;42.130;24.732;2023-03-13T08:13:02;100198.53;;;15.73;29.85
5755;BME280;2902;42.130;24.732;2023-03-13T08:15:29;100172.00;;;16.02;44.99
5755;BME280;2902;42.130;24.732;2023-03-13T08:17:55;100170.88;;;17.03;43.18
5755;BME280;2902;42.130;24.732;2023-03-13T08:20:22;100187.53;;;17.12;29.06
5755;BME280;2902;42.130;24.732;2023-03-13T08:22:49;100181.50;;;16.92;28.99
5755;BME280;2902;42.130;24.732;2023-03-13T08:25:16;100181.72;;;16.90;32.66
5755;BME280;2902;42.130;24.732;2023-03-13T08:27:44;100175.44;;;17.03;32.26
5755;BME280;2902;42.130;24.732;2023-03-13T08:30:11;100173.53;;;17.03;29.48
5755;BME280;2902;42.130;24.732;2023-03-13T08:32:38;100172.59;;;16.98;28.76
5755;BME280;2902;42.130;24.732;2023-03-13T08:35:06;100179.88;;;16.91;28.89
5755;BME280;2902;42.130;24.732;2023-03-13T08:37:33;100174.22;;;16.74;29.44
5755;BME280;2902;42.130;24.732;2023-03-13T08:40:00;100170.91;;;16.48;29.88
5755;BME280;2902;42.130;24.732;2023-03-13T08:42:35;100168.97;;;16.30;30.37
5755;BME280;2902;42.130;24.732;2023-03-13T08:45:04;100177.31;;;16.78;29.72
5755;BME280;2902;42.130;24.732;2023-03-13T08:47:31;100168.91;;;16.68;29.28
5755;BME280;2902;42.130;24.732;2023-03-13T08:49:57;100171.47;;;17.48;31.63
5755;BME280;2902;42.130;24.732;2023-03-13T08:52:24;100174.44;;;18.23;31.45
5755;BME280;2902;42.130;24.732;2023-03-13T08:54:51;100175.09;;;17.89;28.43
5755;BME280;2902;42.130;24.732;2023-03-13T08:57:18;100168.50;;;18.33;29.81
5755;BME280;2902;42.130;24.732;2023-03-13T08:59:45;100170.22;;;18.57;26.24
5755;BME280;2902;42.130;24.732;2023-03-13T09:02:13;100175.06;;;18.89;27.09
5755;BME280;2902;42.130;24.732;2023-03-13T09:04:44;100175.19;;;19.52;25.51
5755;BME280;2902;42.130;24.732;2023-03-13T09:07:11;100172.00;;;19.66;27.71
5755;BME280;2902;42.130;24.732;2023-03-13T09:09:38;100187.63;;;19.30;24.82
5755;BME280;2902;42.130;24.732;2023-03-13T09:12:06;100186.63;;;18.67;26.18
5755;BME280;2902;42.130;24.732;2023-03-13T09:14:32;100179.66;;;19.12;28.41
5755;BME280;2902;42.130;24.732;2023-03-13T09:16:59;100174.84;;;19.88;28.07
5755;BME280;2902;42.130;24.732;2023-03-13T09:19:27;100173.41;;;20.53;26.91
5755;BME280;2902;42.130;24.732;2023-03-13T09:21:54;100168.06;;;21.03;25.64
5755;BME280;2902;42.130;24.732;2023-03-13T09:24:21;100167.59;;;21.27;23.35
5755;BME280;2902;42.130;24.732;2023-03-13T09:26:47;100163.88;;;20.95;22.31
5755;BME280;2902;42.130;24.732;2023-03-13T09:29:14;100164.88;;;20.28;23.15
5755;BME280;2902;42.130;24.732;2023-03-13T09:31:41;100160.31;;;19.38;24.23
5755;BME280;2902;42.130;24.732;2023-03-13T09:34:08;100151.41;;;18.68;24.82
5755;BME280;2902;42.130;24.732;2023-03-13T09:36:36;100162.41;;;18.26;25.40
5755;BME280;2902;42.130;24.732;2023-03-13T09:39:02;100156.56;;;18.29;26.24
5755;BME280;2902;42.130;24.732;2023-03-13T09:41:33;100158.41;;;18.58;25.81
5755;BME280;2902;42.130;24.732;2023-03-13T09:44:07;100155.47;;;18.59;24.52
5755;BME280;2902;42.130;24.732;2023-03-13T09:46:38;100154.31;;;18.26;25.40
5755;BME280;2902;42.130;24.732;2023-03-13T09:49:23;100156.28;;;18.19;24.81
5755;BME280;2902;42.130;24.732;2023-03-13T09:51:59;100137.16;;;17.68;25.90
5755;BME280;2902;42.130;24.732;2023-03-13T09:54:33;100134.69;;;17.96;25.19
5755;BME280;2902;42.130;24.732;2023-03-13T09:57:10;100134.16;;;18.35;24.13
5755;BME280;2902;42.130;24.732;2023-03-13T09:59:43;100124.84;;;18.60;23.79
5755;BME280;2902;42.130;24.732;2023-03-13T10:02:20;100130.94;;;18.79;23.38
5755;BME280;2902;42.130;24.732;2023-03-13T10:04:54;100127.41;;;18.90;22.76
5755;BME280;2902;42.130;24.732;2023-03-13T10:07:23;100123.81;;;18.84;21.89
5755;BME280;2902;42.130;24.732;2023-03-13T10:09:50;100120.66;;;18.99;21.33
5755;BME280;2902;42.130;24.732;2023-03-13T10:12:19;100117.00;;;18.82;21.66
5755;BME280;2902;42.130;24.732;2023-03-13T10:14:53;100107.31;;;18.92;22.54
5755;BME280;2902;42.130;24.732;2023-03-13T10:17:30;100119.41;;;18.49;22.35
5755;BME280;2902;42.130;24.732;2023-03-13T10:20:00;100125.63;;;18.38;21.04
5755;BME280;2902;42.130;24.732;2023-03-13T10:22:34;100117.78;;;18.48;21.00
5755;BME280;2902;42.130;24.732;2023-03-13T10:25:07;100107.25;;;18.35;21.12
5755;BME280;2902;42.130;24.732;2023-03-13T10:27:42;100109.34;;;18.33;21.29
5755;BME280;2902;42.130;24.732;2023-03-13T10:30:20;100099.97;;;17.29;22.31
5755;BME280;2902;42.130;24.732;2023-03-13T10:32:48;100087.13;;;17.67;33.74
5755;BME280;2902;42.130;24.732;2023-03-13T10:35:20;100097.28;;;17.94;23.28
5755;BME280;2902;42.130;24.732;2023-03-13T10:37:48;100109.34;;;17.74;22.56
5755;BME280;2902;42.130;24.732;2023-03-13T10:40:20;100101.66;;;17.77;22.41
5755;BME280;2902;42.130;24.732;2023-03-13T10:42:50;100095.78;;;17.69;20.82
5755;BME280;2902;42.130;24.732;2023-03-13T10:45:18;100092.66;;;17.54;19.37
5755;BME280;2902;42.130;24.732;2023-03-13T10:47:53;100070.47;;;17.47;20.23
5755;BME280;2902;42.130;24.732;2023-03-13T10:50:22;100078.47;;;17.29;21.07
5755;BME280;2902;42.130;24.732;2023-03-13T10:52:52;100081.25;;;17.40;20.97
5755;BME280;2902;42.130;24.732;2023-03-13T10:55:21;100071.13;;;17.24;20.98
5755;BME280;2902;42.130;24.732;2023-03-13T10:57:56;100071.75;;;17.38;21.28
5755;BME280;2902;42.130;24.732;2023-03-13T11:00:34;100076.72;;;17.23;21.12
5755;BME280;2902;42.130;24.732;2023-03-13T11:03:04;100062.28;;;17.35;21.10
5755;BME280;2902;42.130;24.732;2023-03-13T11:05:36;100061.34;;;17.12;20.90
5755;BME280;2902;42.130;24.732;2023-03-13T11:08:18;100064.91;;;17.24;20.33
5755;BME280;2902;42.130;24.732;2023-03-13T11:10:54;100060.66;;;17.34;20.37
5755;BME280;2902;42.130;24.732;2023-03-13T11:13:31;100070.34;;;17.35;20.20
5755;BME280;2902;42.130;24.732;2023-03-13T11:16:05;100049.78;;;17.47;19.97
5755;BME280;2902;42.130;24.732;2023-03-13T11:18:39;100053.38;;;17.41;20.22
5755;BME280;2902;42.130;24.732;2023-03-13T11:21:11;100040.34;;;17.56;21.07
5755;BME280;2902;42.130;24.732;2023-03-13T11:23:46;100038.06;;;17.24;20.07
5755;BME280;2902;42.130;24.732;2023-03-13T11:26:21;100032.13;;;17.04;20.94
5755;BME280;2902;42.130;24.732;2023-03-13T11:28:54;100030.31;;;16.80;21.35
5755;BME280;2902;42.130;24.732;2023-03-13T11:31:28;100026.72;;;16.68;21.04
5755;BME280;2902;42.130;24.732;2023-03-13T11:34:04;100020.66;;;16.54;21.55
5755;BME280;2902;42.130;24.732;2023-03-13T11:36:33;100014.63;;;15.92;22.01
5755;BME280;2902;42.130;24.732;2023-03-13T11:39:23;100014.81;;;16.15;22.44
5755;BME280;2902;42.130;24.732;2023-03-13T11:41:59;100009.31;;;16.34;22.11
5755;BME280;2902;42.130;24.732;2023-03-13T11:44:40;100003.47;;;16.37;21.87
5755;BME280;2902;42.130;24.732;2023-03-13T11:47:24;99997.59;;;16.53;21.55
5755;BME280;2902;42.130;24.732;2023-03-13T11:50:11;99987.91;;;16.70;21.45
5755;BME280;2902;42.130;24.732;2023-03-13T11:52:49;99994.38;;;16.81;20.87
5755;BME280;2902;42.130;24.732;2023-03-13T11:55:33;99990.81;;;16.87;21.01
5755;BME280;2902;42.130;24.732;2023-03-13T11:58:18;99988.19;;;16.98;20.43
5755;BME280;2902;42.130;24.732;2023-03-13T12:00:56;99987.97;;;17.00;19.72
5755;BME280;2902;42.130;24.732;2023-03-13T12:03:33;99971.00;;;16.88;19.43
5755;BME280;2902;42.130;24.732;2023-03-13T12:06:02;99971.97;;;16.93;18.97
5755;BME280;2902;42.130;24.732;2023-03-13T12:08:35;99967.25;;;17.07;19.23
5755;BME280;2902;42.130;24.732;2023-03-13T12:11:12;99962.06;;;16.76;18.64
5755;BME280;2902;42.130;24.732;2023-03-13T12:13:43;99958.31;;;16.95;18.57
5755;BME280;2902;42.130;24.732;2023-03-13T12:16:17;99955.94;;;16.87;18.98
5755;BME280;2902;42.130;24.732;2023-03-13T12:18:47;99966.31;;;16.83;17.86
5755;BME280;2902;42.130;24.732;2023-03-13T12:21:21;99955.06;;;16.75;18.39
5755;BME280;2902;42.130;24.732;2023-03-13T12:23:58;99955.88;;;16.57;19.25
5755;BME280;2902;42.130;24.732;2023-03-13T12:26:36;99953.19;;;16.57;19.68
5755;BME280;2902;42.130;24.732;2023-03-13T12:29:12;99953.25;;;16.51;20.19
5755;BME280;2902;42.130;24.732;2023-03-13T12:31:44;99942.59;;;16.62;20.74
5755;BME280;2902;42.130;24.732;2023-03-13T12:34:17;99954.91;;;16.70;20.64
5755;BME280;2902;42.130;24.732;2023-03-13T12:36:48;99956.41;;;16.66;20.10
5755;BME280;2902;42.130;24.732;2023-03-13T12:39:24;99953.25;;;16.51;19.73
5755;BME280;2902;42.130;24.732;2023-03-13T12:42:05;99953.34;;;16.44;19.75
5755;BME280;2902;42.130;24.732;2023-03-13T12:44:34;99929.69;;;16.35;20.25
5755;BME280;2902;42.130;24.732;2023-03-13T12:47:07;99942.88;;;16.36;20.24
5755;BME280;2902;42.130;24.732;2023-03-13T12:50:02;99941.88;;;16.31;20.77
5755;BME280;2902;42.130;24.732;2023-03-13T12:52:56;99957.69;;;16.39;21.00
5755;BME280;2902;42.130;24.732;2023-03-13T12:55:48;99943.66;;;16.19;20.80
5755;BME280;2902;42.130;24.732;2023-03-13T12:58:29;99945.09;;;15.97;21.06
5755;BME280;2902;42.130;24.732;2023-03-13T13:01:05;99950.78;;;15.82;20.52
5755;BME280;2902;42.130;24.732;2023-03-13T13:03:35;99949.09;;;15.88;20.96
5755;BME280;2902;42.130;24.732;2023-03-13T13:06:09;99939.47;;;16.05;21.21
5755;BME280;2902;42.130;24.732;2023-03-13T13:08:38;99939.25;;;15.81;21.02
5755;BME280;2902;42.130;24.732;2023-03-13T13:17:25;99929.84;;;15.48;21.73
5755;BME280;2902;42.130;24.732;2023-03-13T13:19:54;99932.53;;;15.48;21.63
5755;BME280;2902;42.130;24.732;2023-03-13T13:25:32;99926.34;;;15.47;21.46
5755;BME280;2902;42.130;24.732;2023-03-13T13:28:20;99932.38;;;15.36;21.29
5755;BME280;2902;42.130;24.732;2023-03-13T13:30:48;99933.81;;;15.32;21.60